St. Day, United Kingdom
Current Conditions -  °F | °C
As of 11:50 AM on Monday 24 Nov 2014 (Local Time) from EGDR Reporting Station
Scattered Clouds Scattered Clouds  
Wind Chill: 46°   Ceiling: Unl
Heat Index: 48°   Visibility: 6mi
Dew Point: 39°   Wind: 5mph
Humidity: 71%   Direction: 40°NE
Pressure: 30.33"   Gusts: NA
Location:  50.24°N, 5.19°W
Report Text: EGDR 241150Z 04004KT 9999 FEW022 SCT200 09/04 Q1027 BLU NOSIG
Loading
Personal Weather Stations






























Interactive Weather Map New forecast layout! Learn more

10-Day Weather Forecast

Advertisements
Track Severe Weather on mobile